sensor_id;sensor_type;location;lat;lon;timestamp;temperature;humidity
68274;SHT30;55104;47.356;19.448;2022-12-13T00:01:56;-1.44;86.39
68274;SHT30;55104;47.356;19.448;2022-12-13T00:04:58;-1.46;86.41
68274;SHT30;55104;47.356;19.448;2022-12-13T00:08:00;-1.54;86.83
68274;SHT30;55104;47.356;19.448;2022-12-13T00:11:06;-1.60;87.19
68274;SHT30;55104;47.356;19.448;2022-12-13T00:14:08;-1.57;87.16
68274;SHT30;55104;47.356;19.448;2022-12-13T00:17:10;-1.67;87.44
68274;SHT30;55104;47.356;19.448;2022-12-13T00:20:12;-1.71;87.33
68274;SHT30;55104;47.356;19.448;2022-12-13T00:23:15;-1.79;87.62
68274;SHT30;55104;47.356;19.448;2022-12-13T00:26:20;-1.79;87.43
68274;SHT30;55104;47.356;19.448;2022-12-13T00:29:23;-1.95;87.86
68274;SHT30;55104;47.356;19.448;2022-12-13T00:32:25;-1.99;88.47
68274;SHT30;55104;47.356;19.448;2022-12-13T00:35:27;-1.95;88.18
68274;SHT30;55104;47.356;19.448;2022-12-13T00:38:29;-2.00;88.58
68274;SHT30;55104;47.356;19.448;2022-12-13T00:41:33;-2.13;88.80
68274;SHT30;55104;47.356;19.448;2022-12-13T00:44:35;-2.16;88.88
68274;SHT30;55104;47.356;19.448;2022-12-13T00:47:37;-2.17;88.88
68274;SHT30;55104;47.356;19.448;2022-12-13T00:50:39;-2.17;88.62
68274;SHT30;55104;47.356;19.448;2022-12-13T00:53:42;-2.17;88.80
68274;SHT30;55104;47.356;19.448;2022-12-13T00:56:44;-2.25;88.80
68274;SHT30;55104;47.356;19.448;2022-12-13T00:59:46;-2.27;89.10
68274;SHT30;55104;47.356;19.448;2022-12-13T01:02:49;-2.34;89.31
68274;SHT30;55104;47.356;19.448;2022-12-13T01:05:51;-2.33;89.17
68274;SHT30;55104;47.356;19.448;2022-12-13T01:09:19;-2.41;89.57
68274;SHT30;55104;47.356;19.448;2022-12-13T01:12:21;-2.44;89.53
68274;SHT30;55104;47.356;19.448;2022-12-13T01:15:23;-2.53;89.72
68274;SHT30;55104;47.356;19.448;2022-12-13T01:18:25;-2.51;90.09
68274;SHT30;55104;47.356;19.448;2022-12-13T01:21:27;-2.60;90.10
68274;SHT30;55104;47.356;19.448;2022-12-13T01:24:31;-2.62;89.99
68274;SHT30;55104;47.356;19.448;2022-12-13T01:27:33;-2.71;90.34
68274;SHT30;55104;47.356;19.448;2022-12-13T01:30:38;-2.79;91.04
68274;SHT30;55104;47.356;19.448;2022-12-13T01:33:40;-2.83;90.87
68274;SHT30;55104;47.356;19.448;2022-12-13T01:36:46;-2.89;91.16
68274;SHT30;55104;47.356;19.448;2022-12-13T01:39:48;-2.91;91.22
68274;SHT30;55104;47.356;19.448;2022-12-13T01:42:50;-3.02;91.65
68274;SHT30;55104;47.356;19.448;2022-12-13T01:45:52;-3.06;91.72
68274;SHT30;55104;47.356;19.448;2022-12-13T01:49:02;-3.09;91.94
68274;SHT30;55104;47.356;19.448;2022-12-13T01:52:07;-3.09;92.10
68274;SHT30;55104;47.356;19.448;2022-12-13T01:55:13;-3.14;92.07
68274;SHT30;55104;47.356;19.448;2022-12-13T01:58:16;-3.11;92.09
68274;SHT30;55104;47.356;19.448;2022-12-13T02:01:19;-3.16;92.20
68274;SHT30;55104;47.356;19.448;2022-12-13T02:04:29;-3.19;92.32
68274;SHT30;55104;47.356;19.448;2022-12-13T02:07:33;-3.20;92.26
68274;SHT30;55104;47.356;19.448;2022-12-13T02:10:38;-3.21;92.10
68274;SHT30;55104;47.356;19.448;2022-12-13T02:13:40;-3.21;92.02
68274;SHT30;55104;47.356;19.448;2022-12-13T02:24:13;-3.36;92.25
68274;SHT30;55104;47.356;19.448;2022-12-13T02:30:51;-3.38;92.32
68274;SHT30;55104;47.356;19.448;2022-12-13T02:34:04;-3.40;92.60
68274;SHT30;55104;47.356;19.448;2022-12-13T02:37:19;-3.38;92.63
68274;SHT30;55104;47.356;19.448;2022-12-13T02:46:54;-3.33;92.37
68274;SHT30;55104;47.356;19.448;2022-12-13T02:50:01;-3.33;92.42
68274;SHT30;55104;47.356;19.448;2022-12-13T02:53:06;-3.37;92.36
68274;SHT30;55104;47.356;19.448;2022-12-13T02:56:08;-3.36;92.37
68274;SHT30;55104;47.356;19.448;2022-12-13T02:59:13;-3.38;92.15
68274;SHT30;55104;47.356;19.448;2022-12-13T03:02:32;-3.43;92.28
68274;SHT30;55104;47.356;19.448;2022-12-13T03:06:05;-3.47;92.49
68274;SHT30;55104;47.356;19.448;2022-12-13T03:09:56;-3.54;92.62
68274;SHT30;55104;47.356;19.448;2022-12-13T03:13:04;-3.64;92.48
68274;SHT30;55104;47.356;19.448;2022-12-13T03:19:35;-3.68;92.39
68274;SHT30;55104;47.356;19.448;2022-12-13T03:22:37;-3.74;92.97
68274;SHT30;55104;47.356;19.448;2022-12-13T03:25:39;-3.75;92.92
68274;SHT30;55104;47.356;19.448;2022-12-13T03:28:41;-3.85;92.72
68274;SHT30;55104;47.356;19.448;2022-12-13T03:31:43;-3.89;92.83
68274;SHT30;55104;47.356;19.448;2022-12-13T03:34:45;-3.90;92.74
68274;SHT30;55104;47.356;19.448;2022-12-13T03:38:01;-4.00;92.85
68274;SHT30;55104;47.356;19.448;2022-12-13T03:41:10;-4.03;92.90
68274;SHT30;55104;47.356;19.448;2022-12-13T03:44:13;-4.04;92.80
68274;SHT30;55104;47.356;19.448;2022-12-13T03:47:15;-4.00;93.00
68274;SHT30;55104;47.356;19.448;2022-12-13T03:50:21;-4.13;92.44
68274;SHT30;55104;47.356;19.448;2022-12-13T03:53:28;-4.27;92.26
68274;SHT30;55104;47.356;19.448;2022-12-13T03:56:34;-4.41;93.02
68274;SHT30;55104;47.356;19.448;2022-12-13T03:59:37;-4.41;93.84
68274;SHT30;55104;47.356;19.448;2022-12-13T04:02:39;-4.47;93.56
68274;SHT30;55104;47.356;19.448;2022-12-13T04:05:41;-4.45;93.82
68274;SHT30;55104;47.356;19.448;2022-12-13T04:08:43;-4.55;93.15
68274;SHT30;55104;47.356;19.448;2022-12-13T04:11:45;-4.59;93.29
68274;SHT30;55104;47.356;19.448;2022-12-13T04:15:08;-4.62;93.89
68274;SHT30;55104;47.356;19.448;2022-12-13T04:18:10;-4.58;94.02
68274;SHT30;55104;47.356;19.448;2022-12-13T04:21:12;-4.57;94.42
68274;SHT30;55104;47.356;19.448;2022-12-13T04:24:14;-4.61;94.22
68274;SHT30;55104;47.356;19.448;2022-12-13T04:27:17;-4.58;94.10
68274;SHT30;55104;47.356;19.448;2022-12-13T04:30:19;-4.66;94.51
68274;SHT30;55104;47.356;19.448;2022-12-13T04:33:21;-4.65;95.07
68274;SHT30;55104;47.356;19.448;2022-12-13T04:36:23;-4.59;94.45
68274;SHT30;55104;47.356;19.448;2022-12-13T04:39:33;-4.58;94.27
68274;SHT30;55104;47.356;19.448;2022-12-13T04:42:35;-4.61;93.83
68274;SHT30;55104;47.356;19.448;2022-12-13T04:45:37;-4.66;94.43
68274;SHT30;55104;47.356;19.448;2022-12-13T04:48:39;-4.68;94.50
68274;SHT30;55104;47.356;19.448;2022-12-13T04:51:41;-4.68;95.04
68274;SHT30;55104;47.356;19.448;2022-12-13T04:54:48;-4.61;94.84
68274;SHT30;55104;47.356;19.448;2022-12-13T04:57:56;-4.58;95.10
68274;SHT30;55104;47.356;19.448;2022-12-13T05:00:58;-4.62;94.97
68274;SHT30;55104;47.356;19.448;2022-12-13T05:04:02;-4.65;94.54
68274;SHT30;55104;47.356;19.448;2022-12-13T05:07:04;-4.62;94.40
68274;SHT30;55104;47.356;19.448;2022-12-13T05:10:07;-4.66;94.21
68274;SHT30;55104;47.356;19.448;2022-12-13T05:13:09;-4.68;94.48
68274;SHT30;55104;47.356;19.448;2022-12-13T05:16:11;-4.76;94.43
68274;SHT30;55104;47.356;19.448;2022-12-13T05:19:13;-4.73;94.30
68274;SHT30;55104;47.356;19.448;2022-12-13T05:22:15;-4.79;94.43
68274;SHT30;55104;47.356;19.448;2022-12-13T05:25:22;-4.86;94.23
68274;SHT30;55104;47.356;19.448;2022-12-13T05:28:25;-4.90;94.54
68274;SHT30;55104;47.356;19.448;2022-12-13T05:31:29;-4.89;94.45
68274;SHT30;55104;47.356;19.448;2022-12-13T05:34:31;-4.92;94.34
68274;SHT30;55104;47.356;19.448;2022-12-13T05:37:33;-4.92;94.38
68274;SHT30;55104;47.356;19.448;2022-12-13T05:40:36;-4.90;94.73
68274;SHT30;55104;47.356;19.448;2022-12-13T05:43:39;-4.90;95.36
68274;SHT30;55104;47.356;19.448;2022-12-13T05:46:44;-4.83;95.17
68274;SHT30;55104;47.356;19.448;2022-12-13T05:49:46;-4.86;94.81
68274;SHT30;55104;47.356;19.448;2022-12-13T05:52:49;-4.86;94.79
68274;SHT30;55104;47.356;19.448;2022-12-13T05:55:51;-4.90;94.18
68274;SHT30;55104;47.356;19.448;2022-12-13T05:58:53;-4.95;94.26
68274;SHT30;55104;47.356;19.448;2022-12-13T06:01:55;-4.95;94.37
68274;SHT30;55104;47.356;19.448;2022-12-13T06:04:58;-4.92;94.39
68274;SHT30;55104;47.356;19.448;2022-12-13T06:08:00;-4.92;94.53
68274;SHT30;55104;47.356;19.448;2022-12-13T06:11:04;-4.93;95.00
68274;SHT30;55104;47.356;19.448;2022-12-13T06:14:13;-4.97;94.71
68274;SHT30;55104;47.356;19.448;2022-12-13T06:17:23;-5.06;94.25
68274;SHT30;55104;47.356;19.448;2022-12-13T06:20:26;-5.14;94.05
68274;SHT30;55104;47.356;19.448;2022-12-13T06:23:30;-5.20;93.75
68274;SHT30;55104;47.356;19.448;2022-12-13T06:26:33;-5.27;94.14
68274;SHT30;55104;47.356;19.448;2022-12-13T06:29:35;-5.25;94.67
68274;SHT30;55104;47.356;19.448;2022-12-13T06:32:37;-5.14;94.96
68274;SHT30;55104;47.356;19.448;2022-12-13T06:35:45;-5.13;94.42
68274;SHT30;55104;47.356;19.448;2022-12-13T06:38:47;-5.17;94.27
68274;SHT30;55104;47.356;19.448;2022-12-13T06:41:49;-5.18;93.70
68274;SHT30;55104;47.356;19.448;2022-12-13T06:44:51;-5.23;93.86
68274;SHT30;55104;47.356;19.448;2022-12-13T06:47:57;-5.23;94.05
68274;SHT30;55104;47.356;19.448;2022-12-13T06:51:00;-5.17;93.79
68274;SHT30;55104;47.356;19.448;2022-12-13T06:54:03;-5.14;93.25
68274;SHT30;55104;47.356;19.448;2022-12-13T06:57:05;-5.11;93.25
68274;SHT30;55104;47.356;19.448;2022-12-13T07:00:08;-5.14;92.76
68274;SHT30;55104;47.356;19.448;2022-12-13T07:03:15;-5.07;93.97
68274;SHT30;55104;47.356;19.448;2022-12-13T07:06:19;-4.97;94.88
68274;SHT30;55104;47.356;19.448;2022-12-13T07:09:22;-4.85;94.99
68274;SHT30;55104;47.356;19.448;2022-12-13T07:12:24;-4.79;94.63
68274;SHT30;55104;47.356;19.448;2022-12-13T07:15:26;-4.66;95.09
68274;SHT30;55104;47.356;19.448;2022-12-13T07:18:28;-4.49;94.81
68274;SHT30;55104;47.356;19.448;2022-12-13T07:21:30;-4.44;94.76
68274;SHT30;55104;47.356;19.448;2022-12-13T07:24:35;-4.35;94.59
68274;SHT30;55104;47.356;19.448;2022-12-13T07:27:37;-4.30;94.45
68274;SHT30;55104;47.356;19.448;2022-12-13T07:30:44;-4.32;94.50
68274;SHT30;55104;47.356;19.448;2022-12-13T07:33:47;-4.28;94.29
68274;SHT30;55104;47.356;19.448;2022-12-13T07:36:49;-4.09;94.16
68274;SHT30;55104;47.356;19.448;2022-12-13T07:39:51;-4.10;93.96
68274;SHT30;55104;47.356;19.448;2022-12-13T07:43:05;-3.97;93.62
68274;SHT30;55104;47.356;19.448;2022-12-13T07:46:07;-3.92;93.53
68274;SHT30;55104;47.356;19.448;2022-12-13T07:49:10;-3.76;93.24
68274;SHT30;55104;47.356;19.448;2022-12-13T07:52:12;-3.74;93.32
68274;SHT30;55104;47.356;19.448;2022-12-13T07:55:16;-3.59;92.82
68274;SHT30;55104;47.356;19.448;2022-12-13T07:58:19;-3.55;92.39
68274;SHT30;55104;47.356;19.448;2022-12-13T08:01:21;-3.51;92.07
68274;SHT30;55104;47.356;19.448;2022-12-13T08:04:23;-3.43;92.66
68274;SHT30;55104;47.356;19.448;2022-12-13T08:07:25;-3.38;92.28
68274;SHT30;55104;47.356;19.448;2022-12-13T08:10:27;-3.27;92.33
68274;SHT30;55104;47.356;19.448;2022-12-13T08:13:30;-3.19;91.97
68274;SHT30;55104;47.356;19.448;2022-12-13T08:16:32;-3.13;91.82
68274;SHT30;55104;47.356;19.448;2022-12-13T08:19:35;-3.03;91.62
68274;SHT30;55104;47.356;19.448;2022-12-13T08:22:37;-2.96;91.42
68274;SHT30;55104;47.356;19.448;2022-12-13T08:25:39;-2.86;91.41
68274;SHT30;55104;47.356;19.448;2022-12-13T08:28:41;-2.85;91.32
68274;SHT30;55104;47.356;19.448;2022-12-13T08:31:43;-2.79;91.29
68274;SHT30;55104;47.356;19.448;2022-12-13T08:34:45;-2.66;90.97
68274;SHT30;55104;47.356;19.448;2022-12-13T08:37:47;-2.61;90.67
68274;SHT30;55104;47.356;19.448;2022-12-13T08:40:50;-2.47;90.10
68274;SHT30;55104;47.356;19.448;2022-12-13T08:43:52;-2.36;90.19
68274;SHT30;55104;47.356;19.448;2022-12-13T08:46:54;-2.27;89.37
68274;SHT30;55104;47.356;19.448;2022-12-13T08:49:57;-2.16;89.11
68274;SHT30;55104;47.356;19.448;2022-12-13T08:53:05;-2.17;88.98
68274;SHT30;55104;47.356;19.448;2022-12-13T08:56:10;-2.17;89.55
68274;SHT30;55104;47.356;19.448;2022-12-13T08:59:12;-2.06;88.75
68274;SHT30;55104;47.356;19.448;2022-12-13T09:02:17;-2.10;89.33
68274;SHT30;55104;47.356;19.448;2022-12-13T09:05:19;-2.00;88.89
68274;SHT30;55104;47.356;19.448;2022-12-13T09:08:36;-1.86;88.56
68274;SHT30;55104;47.356;19.448;2022-12-13T09:11:39;-1.83;88.39
68274;SHT30;55104;47.356;19.448;2022-12-13T09:14:44;-1.79;87.95
68274;SHT30;55104;47.356;19.448;2022-12-13T09:17:47;-1.68;88.02
68274;SHT30;55104;47.356;19.448;2022-12-13T09:20:56;-1.55;87.33
68274;SHT30;55104;47.356;19.448;2022-12-13T09:24:12;-1.46;87.22
68274;SHT30;55104;47.356;19.448;2022-12-13T09:27:26;-1.43;87.09
68274;SHT30;55104;47.356;19.448;2022-12-13T09:30:29;-1.36;86.86
68274;SHT30;55104;47.356;19.448;2022-12-13T09:33:32;-1.17;86.83
68274;SHT30;55104;47.356;19.448;2022-12-13T09:36:42;-1.02;86.30
68274;SHT30;55104;47.356;19.448;2022-12-13T09:39:44;-0.92;85.26
68274;SHT30;55104;47.356;19.448;2022-12-13T09:42:56;-0.78;85.44
68274;SHT30;55104;47.356;19.448;2022-12-13T09:46:24;-0.72;84.25
68274;SHT30;55104;47.356;19.448;2022-12-13T09:49:38;-0.65;84.46
68274;SHT30;55104;47.356;19.448;2022-12-13T09:52:42;-0.56;84.77
68274;SHT30;55104;47.356;19.448;2022-12-13T09:55:46;-0.51;84.16
68274;SHT30;55104;47.356;19.448;2022-12-13T09:58:50;-0.40;84.04
68274;SHT30;55104;47.356;19.448;2022-12-13T10:01:55;-0.22;83.79
68274;SHT30;55104;47.356;19.448;2022-12-13T10:08:31;0.06;81.46
68274;SHT30;55104;47.356;19.448;2022-12-13T10:11:46;0.15;80.83
68274;SHT30;55104;47.356;19.448;2022-12-13T10:14:55;0.18;80.64
68274;SHT30;55104;47.356;19.448;2022-12-13T10:18:01;0.24;79.22
68274;SHT30;55104;47.356;19.448;2022-12-13T10:21:16;0.29;79.97
68274;SHT30;55104;47.356;19.448;2022-12-13T10:24:24;0.48;80.03
68274;SHT30;55104;47.356;19.448;2022-12-13T10:27:39;0.50;79.30
68274;SHT30;55104;47.356;19.448;2022-12-13T10:30:49;0.50;77.85
68274;SHT30;55104;47.356;19.448;2022-12-13T10:33:55;0.53;79.50
68274;SHT30;55104;47.356;19.448;2022-12-13T10:36:57;0.66;77.87
68274;SHT30;55104;47.356;19.448;2022-12-13T10:40:02;0.63;78.78
68274;SHT30;55104;47.356;19.448;2022-12-13T10:46:18;0.88;77.38
68274;SHT30;55104;47.356;19.448;2022-12-13T10:53:00;1.01;75.25
68274;SHT30;55104;47.356;19.448;2022-12-13T10:56:04;1.18;75.65
68274;SHT30;55104;47.356;19.448;2022-12-13T11:02:33;1.26;74.40
68274;SHT30;55104;47.356;19.448;2022-12-13T11:05:36;1.42;75.36
68274;SHT30;55104;47.356;19.448;2022-12-13T11:08:39;1.26;73.17
68274;SHT30;55104;47.356;19.448;2022-12-13T11:11:43;1.46;73.31
68274;SHT30;55104;47.356;19.448;2022-12-13T11:15:01;1.47;72.49
68274;SHT30;55104;47.356;19.448;2022-12-13T11:18:07;1.47;72.93
68274;SHT30;55104;47.356;19.448;2022-12-13T11:21:24;1.53;73.82
68274;SHT30;55104;47.356;19.448;2022-12-13T11:24:36;1.66;73.77
68274;SHT30;55104;47.356;19.448;2022-12-13T11:27:46;1.62;71.33
68274;SHT30;55104;47.356;19.448;2022-12-13T11:37:29;1.64;68.86
68274;SHT30;55104;47.356;19.448;2022-12-13T11:40:41;1.71;70.37
68274;SHT30;55104;47.356;19.448;2022-12-13T11:43:50;1.75;69.96
68274;SHT30;55104;47.356;19.448;2022-12-13T11:46:57;1.97;72.69
68274;SHT30;55104;47.356;19.448;2022-12-13T11:50:03;2.12;70.70
68274;SHT30;55104;47.356;19.448;2022-12-13T11:54:13;2.12;70.08
68274;SHT30;55104;47.356;19.448;2022-12-13T11:56:49;2.24;70.81
68274;SHT30;55104;47.356;19.448;2022-12-13T12:00:16;2.18;70.63
68274;SHT30;55104;47.356;19.448;2022-12-13T12:03:45;2.09;68.63
68274;SHT30;55104;47.356;19.448;2022-12-13T12:07:00;1.91;68.80
68274;SHT30;55104;47.356;19.448;2022-12-13T12:10:50;2.02;69.51
68274;SHT30;55104;47.356;19.448;2022-12-13T12:17:31;2.09;68.13
68274;SHT30;55104;47.356;19.448;2022-12-13T12:21:02;2.04;68.45
68274;SHT30;55104;47.356;19.448;2022-12-13T12:27:37;1.95;68.22
68274;SHT30;55104;47.356;19.448;2022-12-13T12:41:11;1.81;68.53
68274;SHT30;55104;47.356;19.448;2022-12-13T12:48:01;1.84;68.13
68274;SHT30;55104;47.356;19.448;2022-12-13T12:51:49;1.77;68.72
68274;SHT30;55104;47.356;19.448;2022-12-13T13:04:42;1.71;70.61
68274;SHT30;55104;47.356;19.448;2022-12-13T13:07:54;1.68;70.98
68274;SHT30;55104;47.356;19.448;2022-12-13T13:10:58;1.67;70.37
68274;SHT30;55104;47.356;19.448;2022-12-13T13:14:30;1.57;69.72
68274;SHT30;55104;47.356;19.448;2022-12-13T13:20:38;1.36;70.13
68274;SHT30;55104;47.356;19.448;2022-12-13T13:23:44;1.38;69.30
68274;SHT30;55104;47.356;19.448;2022-12-13T13:26:53;1.38;71.04
68274;SHT30;55104;47.356;19.448;2022-12-13T13:36:45;1.24;71.17
68274;SHT30;55104;47.356;19.448;2022-12-13T13:46:09;1.18;72.27
68274;SHT30;55104;47.356;19.448;2022-12-13T13:49:12;1.12;72.28
68274;SHT30;55104;47.356;19.448;2022-12-13T13:52:20;0.98;72.62
68274;SHT30;55104;47.356;19.448;2022-12-13T13:55:47;0.92;73.04
68274;SHT30;55104;47.356;19.448;2022-12-13T14:09:14;0.54;73.37
68274;SHT30;55104;47.356;19.448;2022-12-13T14:22:41;0.19;74.17
68274;SHT30;55104;47.356;19.448;2022-12-13T14:29:40;-0.05;74.58
68274;SHT30;55104;47.356;19.448;2022-12-13T14:32:59;-0.14;75.70
68274;SHT30;55104;47.356;19.448;2022-12-13T14:36:01;-0.20;76.30
68274;SHT30;55104;47.356;19.448;2022-12-13T14:39:13;-0.31;77.20
68274;SHT30;55104;47.356;19.448;2022-12-13T14:42:31;-0.45;78.14
68274;SHT30;55104;47.356;19.448;2022-12-13T14:45:37;-0.51;78.94
68274;SHT30;55104;47.356;19.448;2022-12-13T14:48:45;-0.53;79.62
68274;SHT30;55104;47.356;19.448;2022-12-13T14:51:53;-0.62;80.03
68274;SHT30;55104;47.356;19.448;2022-12-13T14:55:02;-0.75;80.48
68274;SHT30;55104;47.356;19.448;2022-12-13T14:58:18;-0.75;81.10
68274;SHT30;55104;47.356;19.448;2022-12-13T15:04:33;-1.02;81.82
68274;SHT30;55104;47.356;19.448;2022-12-13T15:07:38;-1.16;82.13
68274;SHT30;55104;47.356;19.448;2022-12-13T15:10:44;-1.37;82.56
68274;SHT30;55104;47.356;19.448;2022-12-13T15:13:49;-1.41;83.09
68274;SHT30;55104;47.356;19.448;2022-12-13T15:16:54;-1.36;83.39
68274;SHT30;55104;47.356;19.448;2022-12-13T15:20:24;-1.36;83.55
68274;SHT30;55104;47.356;19.448;2022-12-13T15:23:35;-1.44;83.84
68274;SHT30;55104;47.356;19.448;2022-12-13T15:26:55;-1.60;84.05
68274;SHT30;55104;47.356;19.448;2022-12-13T15:29:58;-1.71;84.90
68274;SHT30;55104;47.356;19.448;2022-12-13T15:33:02;-1.71;85.15
68274;SHT30;55104;47.356;19.448;2022-12-13T15:39:15;-1.82;85.51
68274;SHT30;55104;47.356;19.448;2022-12-13T15:42:24;-1.90;86.00
68274;SHT30;55104;47.356;19.448;2022-12-13T15:45:28;-1.98;86.60
68274;SHT30;55104;47.356;19.448;2022-12-13T15:48:40;-2.07;87.14
68274;SHT30;55104;47.356;19.448;2022-12-13T15:51:58;-2.16;87.22
68274;SHT30;55104;47.356;19.448;2022-12-13T15:58:28;-2.33;87.84
68274;SHT30;55104;47.356;19.448;2022-12-13T16:01:34;-2.41;88.38
68274;SHT30;55104;47.356;19.448;2022-12-13T16:04:37;-2.44;89.22
68274;SHT30;55104;47.356;19.448;2022-12-13T16:07:39;-2.50;89.77
68274;SHT30;55104;47.356;19.448;2022-12-13T16:10:47;-2.53;89.56
68274;SHT30;55104;47.356;19.448;2022-12-13T16:13:49;-2.57;89.25
68274;SHT30;55104;47.356;19.448;2022-12-13T16:17:02;-2.66;89.36
68274;SHT30;55104;47.356;19.448;2022-12-13T16:20:13;-2.71;89.63
68274;SHT30;55104;47.356;19.448;2022-12-13T16:23:16;-2.73;89.77
68274;SHT30;55104;47.356;19.448;2022-12-13T16:26:29;-2.78;90.38
68274;SHT30;55104;47.356;19.448;2022-12-13T16:29:31;-2.79;90.61
68274;SHT30;55104;47.356;19.448;2022-12-13T16:32:33;-2.86;90.56
68274;SHT30;55104;47.356;19.448;2022-12-13T16:35:55;-2.91;90.77
68274;SHT30;55104;47.356;19.448;2022-12-13T16:38:57;-2.97;91.02
68274;SHT30;55104;47.356;19.448;2022-12-13T16:42:03;-3.03;91.12
68274;SHT30;55104;47.356;19.448;2022-12-13T16:45:11;-3.04;91.17
68274;SHT30;55104;47.356;19.448;2022-12-13T16:48:33;-3.10;91.02
68274;SHT30;55104;47.356;19.448;2022-12-13T16:51:36;-3.13;91.42
68274;SHT30;55104;47.356;19.448;2022-12-13T16:54:42;-3.16;90.96
68274;SHT30;55104;47.356;19.448;2022-12-13T16:57:54;-3.21;90.97
68274;SHT30;55104;47.356;19.448;2022-12-13T17:00:57;-3.27;91.55
68274;SHT30;55104;47.356;19.448;2022-12-13T17:04:00;-3.31;91.80
68274;SHT30;55104;47.356;19.448;2022-12-13T17:07:11;-3.30;91.40
68274;SHT30;55104;47.356;19.448;2022-12-13T17:10:16;-3.37;91.56
68274;SHT30;55104;47.356;19.448;2022-12-13T17:13:19;-3.44;91.99
68274;SHT30;55104;47.356;19.448;2022-12-13T17:16:21;-3.47;92.43
68274;SHT30;55104;47.356;19.448;2022-12-13T17:19:23;-3.47;92.35
68274;SHT30;55104;47.356;19.448;2022-12-13T17:22:26;-3.52;92.44
68274;SHT30;55104;47.356;19.448;2022-12-13T17:25:28;-3.58;92.56
68274;SHT30;55104;47.356;19.448;2022-12-13T17:28:30;-3.61;92.39
68274;SHT30;55104;47.356;19.448;2022-12-13T17:31:34;-3.66;92.30
68274;SHT30;55104;47.356;19.448;2022-12-13T17:34:37;-3.71;92.47
68274;SHT30;55104;47.356;19.448;2022-12-13T17:37:39;-3.76;92.48
68274;SHT30;55104;47.356;19.448;2022-12-13T17:40:45;-3.78;92.94
68274;SHT30;55104;47.356;19.448;2022-12-13T17:43:59;-3.79;92.81
68274;SHT30;55104;47.356;19.448;2022-12-13T17:47:02;-3.87;92.83
68274;SHT30;55104;47.356;19.448;2022-12-13T17:50:05;-3.90;92.99
68274;SHT30;55104;47.356;19.448;2022-12-13T17:53:12;-3.93;93.15
68274;SHT30;55104;47.356;19.448;2022-12-13T17:56:14;-3.93;93.32
68274;SHT30;55104;47.356;19.448;2022-12-13T17:59:19;-3.97;93.21
68274;SHT30;55104;47.356;19.448;2022-12-13T18:02:24;-3.99;93.35
68274;SHT30;55104;47.356;19.448;2022-12-13T18:05:57;-4.04;92.81
68274;SHT30;55104;47.356;19.448;2022-12-13T18:09:00;-4.00;92.84
68274;SHT30;55104;47.356;19.448;2022-12-13T18:12:04;-4.04;93.18
68274;SHT30;55104;47.356;19.448;2022-12-13T18:15:06;-4.07;93.17
68274;SHT30;55104;47.356;19.448;2022-12-13T18:18:08;-4.10;93.06
68274;SHT30;55104;47.356;19.448;2022-12-13T18:21:16;-4.15;92.79
68274;SHT30;55104;47.356;19.448;2022-12-13T18:24:19;-4.15;92.95
68274;SHT30;55104;47.356;19.448;2022-12-13T18:27:21;-4.20;92.77
68274;SHT30;55104;47.356;19.448;2022-12-13T18:30:25;-4.21;92.45
68274;SHT30;55104;47.356;19.448;2022-12-13T18:33:29;-4.24;92.38
68274;SHT30;55104;47.356;19.448;2022-12-13T18:36:32;-4.27;92.56
68274;SHT30;55104;47.356;19.448;2022-12-13T18:39:34;-4.28;92.78
68274;SHT30;55104;47.356;19.448;2022-12-13T18:42:36;-4.24;92.37
68274;SHT30;55104;47.356;19.448;2022-12-13T18:45:38;-4.24;92.16
68274;SHT30;55104;47.356;19.448;2022-12-13T18:48:41;-4.20;91.68
68274;SHT30;55104;47.356;19.448;2022-12-13T18:51:44;-4.18;91.54
68274;SHT30;55104;47.356;19.448;2022-12-13T18:54:46;-4.27;91.67
68274;SHT30;55104;47.356;19.448;2022-12-13T18:57:55;-4.28;92.12
68274;SHT30;55104;47.356;19.448;2022-12-13T19:00:57;-4.35;92.03
68274;SHT30;55104;47.356;19.448;2022-12-13T19:03:59;-4.44;92.53
68274;SHT30;55104;47.356;19.448;2022-12-13T19:07:02;-4.41;92.36
68274;SHT30;55104;47.356;19.448;2022-12-13T19:10:04;-4.45;92.14
68274;SHT30;55104;47.356;19.448;2022-12-13T19:13:07;-4.47;92.40
68274;SHT30;55104;47.356;19.448;2022-12-13T19:16:12;-4.48;91.80
68274;SHT30;55104;47.356;19.448;2022-12-13T19:19:15;-4.48;91.86
68274;SHT30;55104;47.356;19.448;2022-12-13T19:22:18;-4.47;91.64
68274;SHT30;55104;47.356;19.448;2022-12-13T19:25:21;-4.48;91.16
68274;SHT30;55104;47.356;19.448;2022-12-13T19:28:23;-4.47;90.71
68274;SHT30;55104;47.356;19.448;2022-12-13T19:31:26;-4.47;91.08
68274;SHT30;55104;47.356;19.448;2022-12-13T19:34:33;-4.45;90.80
68274;SHT30;55104;47.356;19.448;2022-12-13T19:37:35;-4.55;91.68
68274;SHT30;55104;47.356;19.448;2022-12-13T19:40:41;-4.54;91.34
68274;SHT30;55104;47.356;19.448;2022-12-13T19:43:44;-4.52;91.81
68274;SHT30;55104;47.356;19.448;2022-12-13T19:46:53;-4.54;91.52
68274;SHT30;55104;47.356;19.448;2022-12-13T19:49:56;-4.54;91.70
68274;SHT30;55104;47.356;19.448;2022-12-13T19:52:59;-4.51;91.64
68274;SHT30;55104;47.356;19.448;2022-12-13T19:56:05;-4.55;91.33
68274;SHT30;55104;47.356;19.448;2022-12-13T19:59:09;-4.61;91.19
68274;SHT30;55104;47.356;19.448;2022-12-13T20:02:13;-4.71;91.88
68274;SHT30;55104;47.356;19.448;2022-12-13T20:05:35;-4.78;91.51
68274;SHT30;55104;47.356;19.448;2022-12-13T20:08:57;-4.79;91.61
68274;SHT30;55104;47.356;19.448;2022-12-13T20:12:19;-4.83;91.15
68274;SHT30;55104;47.356;19.448;2022-12-13T20:15:47;-4.89;91.45
68274;SHT30;55104;47.356;19.448;2022-12-13T20:19:09;-4.96;91.85
68274;SHT30;55104;47.356;19.448;2022-12-13T20:22:11;-4.99;91.86
68274;SHT30;55104;47.356;19.448;2022-12-13T20:25:13;-4.99;91.86
68274;SHT30;55104;47.356;19.448;2022-12-13T20:28:15;-5.01;91.88
68274;SHT30;55104;47.356;19.448;2022-12-13T20:31:23;-5.01;91.77
68274;SHT30;55104;47.356;19.448;2022-12-13T20:34:25;-5.04;92.00
68274;SHT30;55104;47.356;19.448;2022-12-13T20:37:27;-5.06;91.79
68274;SHT30;55104;47.356;19.448;2022-12-13T20:40:30;-5.04;92.44
68274;SHT30;55104;47.356;19.448;2022-12-13T20:43:33;-5.00;92.38
68274;SHT30;55104;47.356;19.448;2022-12-13T20:46:35;-4.95;92.77
68274;SHT30;55104;47.356;19.448;2022-12-13T20:49:37;-4.92;92.53
68274;SHT30;55104;47.356;19.448;2022-12-13T20:52:40;-4.92;92.60
68274;SHT30;55104;47.356;19.448;2022-12-13T20:55:47;-4.92;92.70
68274;SHT30;55104;47.356;19.448;2022-12-13T20:58:49;-4.93;92.45
68274;SHT30;55104;47.356;19.448;2022-12-13T21:01:52;-4.92;92.62
68274;SHT30;55104;47.356;19.448;2022-12-13T21:04:55;-4.90;92.99
68274;SHT30;55104;47.356;19.448;2022-12-13T21:07:56;-4.92;92.72
68274;SHT30;55104;47.356;19.448;2022-12-13T21:11:24;-4.93;93.22
68274;SHT30;55104;47.356;19.448;2022-12-13T21:14:27;-4.97;93.00
68274;SHT30;55104;47.356;19.448;2022-12-13T21:17:29;-4.92;92.91
68274;SHT30;55104;47.356;19.448;2022-12-13T21:20:31;-4.90;93.30
68274;SHT30;55104;47.356;19.448;2022-12-13T21:23:33;-4.83;93.01